createdAt,value
2017-12-23T00:01:37.971Z,23.05
2017-12-23T00:04:06.337Z,22.55
2017-12-23T00:06:35.478Z,21.92
2017-12-23T00:09:03.939Z,21.98
2017-12-23T00:11:32.306Z,22.20
2017-12-23T00:14:00.881Z,23.20
2017-12-23T00:18:57.712Z,21.77
2017-12-23T00:21:26.093Z,21.12
2017-12-23T00:23:54.457Z,22.48
2017-12-23T00:26:23.717Z,21.37
2017-12-23T00:28:52.091Z,23.33
2017-12-23T00:31:20.470Z,22.60
2017-12-23T00:33:48.859Z,22.50
2017-12-23T00:36:17.258Z,22.48
2017-12-23T00:38:45.814Z,25.33
2017-12-23T00:41:14.195Z,26.10
2017-12-23T00:43:42.564Z,24.58
2017-12-23T00:46:10.953Z,22.80
2017-12-23T00:48:39.318Z,24.42
2017-12-23T00:51:07.747Z,24.10
2017-12-23T00:53:36.121Z,24.40
2017-12-23T00:56:04.523Z,25.25
2017-12-23T00:58:33.682Z,24.90
2017-12-23T01:01:02.046Z,23.58
2017-12-23T01:03:30.443Z,25.65
2017-12-23T01:05:58.806Z,26.05
2017-12-23T01:08:27.182Z,28.55
2017-12-23T01:10:55.577Z,28.02
2017-12-23T01:13:24.842Z,27.83
2017-12-23T01:15:53.447Z,27.90
2017-12-23T01:18:21.811Z,26.12
2017-12-23T01:20:50.174Z,27.20
2017-12-23T01:23:19.442Z,29.87
2017-12-23T01:25:47.806Z,28.73
2017-12-23T01:28:16.226Z,26.98
2017-12-23T01:30:45.368Z,25.42
2017-12-23T01:33:13.763Z,26.65
2017-12-23T01:35:42.156Z,27.90
2017-12-23T01:38:10.533Z,26.85
2017-12-23T01:40:39.191Z,26.30
2017-12-23T01:43:07.559Z,24.92
2017-12-23T01:45:35.934Z,24.50
2017-12-23T01:48:04.322Z,29.20
2017-12-23T01:50:32.714Z,25.15
2017-12-23T01:53:01.281Z,26.92
2017-12-23T01:55:29.645Z,24.10
2017-12-23T01:57:58.014Z,26.33
2017-12-23T02:00:26.409Z,25.27
2017-12-23T02:02:54.770Z,27.65
2017-12-23T02:05:23.484Z,26.55
2017-12-23T02:07:51.842Z,26.80
2017-12-23T02:10:20.208Z,24.17
2017-12-23T02:12:49.370Z,25.50
2017-12-23T02:15:17.736Z,26.25
2017-12-23T02:17:46.151Z,25.92
2017-12-23T02:20:15.286Z,26.52
2017-12-23T02:22:43.646Z,25.88
2017-12-23T02:25:12.046Z,26.25
2017-12-23T02:27:40.410Z,25.08
2017-12-23T02:30:08.817Z,27.60
2017-12-23T02:32:37.186Z,28.70
2017-12-23T02:35:05.621Z,27.60
2017-12-23T02:37:33.978Z,29.27
2017-12-23T02:40:02.346Z,29.70
2017-12-23T02:42:30.754Z,31.30
2017-12-23T02:44:59.888Z,29.10
2017-12-23T02:47:28.244Z,28.58
2017-12-23T02:49:57.403Z,29.98
2017-12-23T02:52:25.771Z,27.50
2017-12-23T02:54:54.195Z,31.30
2017-12-23T02:57:23.318Z,29.83
2017-12-23T02:59:51.673Z,32.20
2017-12-23T03:02:20.061Z,31.02
2017-12-23T03:04:48.468Z,30.85
2017-12-23T03:07:16.874Z,30.67
2017-12-23T03:09:45.241Z,32.88
2017-12-23T03:12:13.608Z,31.83
2017-12-23T03:14:42.002Z,34.33
2017-12-23T03:17:10.378Z,33.33
2017-12-23T03:19:39.033Z,30.40
2017-12-23T03:22:07.394Z,32.00
2017-12-23T03:24:35.761Z,34.25
2017-12-23T03:27:04.924Z,30.70
2017-12-23T03:29:33.296Z,33.72
2017-12-23T03:32:01.939Z,30.75
2017-12-23T03:34:30.301Z,33.72
2017-12-23T03:36:58.666Z,31.87
2017-12-23T03:39:27.817Z,32.10
2017-12-23T03:41:56.181Z,31.05
2017-12-23T03:44:24.614Z,32.42
2017-12-23T03:46:53.782Z,30.88
2017-12-23T03:49:22.152Z,29.42
2017-12-23T03:51:50.578Z,30.85
2017-12-23T03:54:19.714Z,31.70
2017-12-23T03:56:48.286Z,30.48
2017-12-23T03:59:16.654Z,30.83
2017-12-23T04:01:45.021Z,26.92
2017-12-23T04:04:13.411Z,27.92
2017-12-23T04:06:41.775Z,30.55
2017-12-23T04:09:10.266Z,31.98
2017-12-23T04:11:38.632Z,29.75
2017-12-23T04:14:07.022Z,32.72
2017-12-23T04:16:35.409Z,40.65
2017-12-23T04:19:03.778Z,54.17
2017-12-23T04:21:32.574Z,53.87
2017-12-23T04:24:00.934Z,47.20
2017-12-23T04:26:29.303Z,43.20
2017-12-23T04:28:58.458Z,38.95
2017-12-23T04:31:26.822Z,36.22
2017-12-23T04:33:56.134Z,36.08
2017-12-23T04:36:24.498Z,34.28
2017-12-23T04:38:52.861Z,35.05
2017-12-23T04:41:21.267Z,28.80
2017-12-23T04:43:49.637Z,30.45
2017-12-23T04:46:18.088Z,28.10
2017-12-23T04:48:46.458Z,32.33
2017-12-23T04:51:14.827Z,32.38
2017-12-23T04:53:43.212Z,29.17
2017-12-23T04:56:11.577Z,31.73
2017-12-23T04:58:40.738Z,29.95
2017-12-23T05:01:09.094Z,30.08
2017-12-23T05:03:37.461Z,32.33
2017-12-23T05:06:05.855Z,29.67
2017-12-23T05:08:34.217Z,32.03
2017-12-23T05:11:02.898Z,31.00
2017-12-23T05:13:31.262Z,28.33
2017-12-23T05:15:59.622Z,30.58
2017-12-23T05:18:28.781Z,30.05
2017-12-23T05:20:57.148Z,29.67
2017-12-23T05:23:25.813Z,32.40
2017-12-23T05:25:54.175Z,34.58
2017-12-23T05:28:22.535Z,30.05
2017-12-23T05:30:51.694Z,29.92
2017-12-23T05:33:20.063Z,31.23
2017-12-23T05:35:48.470Z,26.77
2017-12-23T05:38:16.834Z,30.25
2017-12-23T05:40:45.198Z,30.95
2017-12-23T05:43:13.589Z,32.47
2017-12-23T05:45:41.960Z,30.05
2017-12-23T05:48:10.515Z,29.80
2017-12-23T05:50:38.882Z,32.63
2017-12-23T05:53:07.249Z,32.72
2017-12-23T05:55:35.639Z,30.42
2017-12-23T05:58:04.069Z,31.98
2017-12-23T06:00:32.465Z,31.95
2017-12-23T06:03:01.595Z,29.77
2017-12-23T06:05:29.954Z,30.05
2017-12-23T06:07:58.342Z,30.75
2017-12-23T06:10:26.708Z,33.90
2017-12-23T06:12:55.531Z,30.05
2017-12-23T06:15:23.898Z,30.45
2017-12-23T06:17:52.277Z,32.38
2017-12-23T06:20:20.670Z,32.55
2017-12-23T06:22:49.148Z,31.75
2017-12-23T06:25:17.938Z,30.90
2017-12-23T06:27:46.316Z,32.50
2017-12-23T06:30:14.686Z,30.55
2017-12-23T06:32:43.070Z,34.53
2017-12-23T06:35:11.438Z,31.80
2017-12-23T06:37:40.027Z,30.42
2017-12-23T06:40:08.395Z,30.77
2017-12-23T06:42:36.757Z,31.12
2017-12-23T06:45:05.142Z,30.75
2017-12-23T06:47:33.497Z,29.58
2017-12-23T06:50:02.858Z,30.12
2017-12-23T06:52:31.226Z,30.00
2017-12-23T06:54:59.588Z,30.15
2017-12-23T06:57:27.992Z,31.23
2017-12-23T06:59:56.362Z,30.70
2017-12-23T07:02:24.864Z,29.42
2017-12-23T07:04:53.226Z,30.12
2017-12-23T07:07:22.353Z,30.83
2017-12-23T07:09:50.738Z,30.00
2017-12-23T07:12:19.890Z,30.88
2017-12-23T07:14:49.446Z,28.92
2017-12-23T07:17:18.580Z,29.35
2017-12-23T07:19:46.943Z,31.58
2017-12-23T07:22:15.336Z,30.48
2017-12-23T07:24:43.698Z,28.95
2017-12-23T07:27:12.062Z,29.83
2017-12-23T07:29:41.219Z,31.67
2017-12-23T07:32:09.580Z,30.55
2017-12-23T07:34:38.072Z,31.65
2017-12-23T07:37:06.448Z,30.10
2017-12-23T07:39:34.815Z,31.00
2017-12-23T07:42:04.142Z,32.88
2017-12-23T07:44:32.513Z,32.05
2017-12-23T07:47:01.073Z,31.62
2017-12-23T07:49:29.459Z,31.25
2017-12-23T07:51:57.824Z,31.25
2017-12-23T07:54:26.245Z,30.95
2017-12-23T07:56:54.616Z,31.50
2017-12-23T07:59:23.030Z,30.70
2017-12-23T08:01:52.165Z,31.60
2017-12-23T08:04:20.534Z,31.50
2017-12-23T08:06:48.925Z,29.60
2017-12-23T08:09:17.298Z,28.85
2017-12-23T08:11:45.714Z,31.70
2017-12-23T08:14:14.083Z,30.17
2017-12-23T08:16:42.447Z,30.33
2017-12-23T08:19:10.847Z,30.88
2017-12-23T08:21:39.211Z,30.00
2017-12-23T08:24:07.686Z,28.70
2017-12-23T08:26:36.047Z,29.45
2017-12-23T08:29:04.410Z,29.60
2017-12-23T08:31:32.803Z,29.10
2017-12-23T08:34:01.176Z,28.30
2017-12-23T08:36:29.699Z,27.85
2017-12-23T08:38:58.069Z,28.15
2017-12-23T08:41:26.443Z,29.73
2017-12-23T08:43:54.854Z,26.83
2017-12-23T08:46:23.222Z,27.48
2017-12-23T08:48:51.714Z,29.42
2017-12-23T08:51:20.081Z,28.15
2017-12-23T08:53:48.450Z,28.45
2017-12-23T08:56:16.867Z,26.67
2017-12-23T08:58:46.000Z,27.27
2017-12-23T09:01:14.523Z,29.85
2017-12-23T09:03:42.889Z,28.52
2017-12-23T09:06:12.063Z,29.08
2017-12-23T09:08:40.461Z,28.17
2017-12-23T09:11:09.642Z,26.42
2017-12-23T09:13:38.066Z,27.42
2017-12-23T09:16:07.202Z,25.37
2017-12-23T09:18:35.569Z,25.52
2017-12-23T09:21:03.954Z,27.58
2017-12-23T09:23:32.452Z,25.05
2017-12-23T09:26:00.965Z,24.87
2017-12-23T09:28:29.334Z,24.10
2017-12-23T09:30:57.741Z,24.35
2017-12-23T09:33:26.907Z,24.75
2017-12-23T09:35:55.272Z,24.45
2017-12-23T09:38:25.470Z,24.10
2017-12-23T09:40:53.836Z,22.13
2017-12-23T09:43:22.214Z,24.20
2017-12-23T09:45:50.613Z,25.85
2017-12-23T09:48:19.017Z,25.08
2017-12-23T09:50:47.454Z,23.85
2017-12-23T09:53:15.821Z,24.05
2017-12-23T09:55:44.193Z,24.17
2017-12-23T09:58:13.376Z,22.50
2017-12-23T10:00:41.746Z,23.25
2017-12-23T10:03:10.246Z,22.85
2017-12-23T10:05:39.396Z,21.40
2017-12-23T10:08:07.771Z,22.60
2017-12-23T10:10:36.165Z,21.77
2017-12-23T10:13:05.262Z,21.83
2017-12-23T10:15:33.699Z,22.35
2017-12-23T10:18:02.111Z,20.62
2017-12-23T10:20:30.483Z,22.52
2017-12-23T10:22:58.881Z,23.17
2017-12-23T10:25:27.277Z,22.05
2017-12-23T10:27:56.006Z,21.35
2017-12-23T10:30:24.379Z,20.52
2017-12-23T10:32:52.738Z,20.70
2017-12-23T10:35:21.894Z,20.02
2017-12-23T10:37:50.258Z,19.05
2017-12-23T10:40:18.753Z,19.23
2017-12-23T10:42:47.143Z,19.75
2017-12-23T10:45:15.517Z,19.25
2017-12-23T10:47:43.931Z,18.27
2017-12-23T10:50:13.059Z,17.85
2017-12-23T10:52:41.748Z,16.73
2017-12-23T10:55:10.118Z,17.23
2017-12-23T10:57:38.493Z,17.48
2017-12-23T11:00:06.894Z,14.98
2017-12-23T11:02:35.263Z,16.90
2017-12-23T11:05:03.787Z,15.23
2017-12-23T11:07:32.164Z,14.63
2017-12-23T11:10:00.539Z,16.25
2017-12-23T11:12:28.931Z,15.88
2017-12-23T11:14:58.061Z,15.52
2017-12-23T11:17:26.467Z,13.05
2017-12-23T11:19:54.840Z,14.87
2017-12-23T11:22:23.218Z,14.50
2017-12-23T11:24:51.660Z,11.73
2017-12-23T11:27:20.798Z,11.85
2017-12-23T11:29:49.338Z,13.23
2017-12-23T11:32:17.714Z,10.10
2017-12-23T11:34:46.848Z,12.27
2017-12-23T11:37:15.251Z,12.50
2017-12-23T11:39:43.638Z,12.27
2017-12-23T11:42:12.071Z,12.85
2017-12-23T11:44:40.465Z,11.88
2017-12-23T11:47:08.840Z,11.45
2017-12-23T11:49:37.269Z,11.48
2017-12-23T11:52:06.420Z,12.23
2017-12-23T11:54:35.112Z,12.52
2017-12-23T11:57:03.535Z,12.00
2017-12-23T11:59:32.679Z,11.55
2017-12-23T12:02:01.075Z,10.43
2017-12-23T12:04:29.548Z,10.60
2017-12-23T12:06:58.380Z,8.95
2017-12-23T12:09:27.519Z,8.68
2017-12-23T12:11:55.883Z,9.45
2017-12-23T12:14:24.285Z,8.38
2017-12-23T12:16:52.701Z,10.25
2017-12-23T12:19:21.125Z,9.32
2017-12-23T12:21:49.569Z,9.65
2017-12-23T12:24:17.997Z,9.73
2017-12-23T12:26:46.438Z,8.85
2017-12-23T12:29:14.842Z,9.07
2017-12-23T12:31:43.487Z,7.80
2017-12-23T12:34:11.884Z,9.93
2017-12-23T12:36:41.062Z,8.20
2017-12-23T12:39:09.467Z,9.00
2017-12-23T12:41:37.848Z,8.50
2017-12-23T12:44:06.340Z,7.87
2017-12-23T12:46:34.723Z,7.93
2017-12-23T12:49:03.130Z,8.30
2017-12-23T12:51:31.534Z,9.05
2017-12-23T12:53:59.915Z,7.75
2017-12-23T12:56:28.550Z,8.32
2017-12-23T12:58:56.918Z,8.05
2017-12-23T13:01:25.284Z,8.05
2017-12-23T13:03:53.679Z,8.45
2017-12-23T13:06:22.059Z,8.27
2017-12-23T13:08:50.554Z,8.18
2017-12-23T13:11:18.968Z,9.70
2017-12-23T13:13:47.442Z,7.47
2017-12-23T13:16:15.836Z,7.03
2017-12-23T13:18:44.987Z,5.87
2017-12-23T13:21:13.671Z,6.60
2017-12-23T13:23:42.057Z,6.10
2017-12-23T13:26:10.488Z,5.10
2017-12-23T13:28:38.887Z,5.85
2017-12-23T13:31:07.266Z,6.40
2017-12-23T13:33:35.778Z,6.93
2017-12-23T13:38:38.881Z,5.68
2017-12-23T13:41:07.268Z,6.53
2017-12-23T13:43:35.646Z,8.05
2017-12-23T13:46:04.097Z,6.68
2017-12-23T13:48:32.462Z,5.70
2017-12-23T13:51:01.264Z,5.85
2017-12-23T13:53:29.634Z,5.68
2017-12-23T13:55:57.998Z,5.40
2017-12-23T13:58:26.387Z,6.20
2017-12-23T14:00:54.785Z,6.55
2017-12-23T14:03:23.299Z,6.75
2017-12-23T14:05:51.668Z,6.43
2017-12-23T14:08:20.562Z,6.53
2017-12-23T14:10:49.101Z,6.35
2017-12-23T14:13:17.495Z,7.12
2017-12-23T14:15:46.072Z,7.15
2017-12-23T14:18:14.435Z,7.22
2017-12-23T14:20:42.792Z,6.85
2017-12-23T14:23:11.961Z,6.57
2017-12-23T14:25:40.324Z,7.72
2017-12-23T14:28:08.810Z,7.50
2017-12-23T14:30:37.172Z,8.05
2017-12-23T14:33:05.540Z,7.80
2017-12-23T14:35:34.033Z,8.07
2017-12-23T14:38:02.519Z,8.38
2017-12-23T14:40:31.170Z,8.25
2017-12-23T14:42:59.577Z,7.85
2017-12-23T14:45:28.075Z,7.25
2017-12-23T14:47:56.573Z,7.82
2017-12-23T14:50:24.941Z,7.90
2017-12-23T14:52:53.317Z,7.90
2017-12-23T14:55:21.777Z,7.10
2017-12-23T14:57:50.140Z,8.10
2017-12-23T15:00:18.509Z,7.20
2017-12-23T15:02:46.897Z,7.97
2017-12-23T15:05:15.257Z,8.45
2017-12-23T15:07:43.656Z,8.93
2017-12-23T15:10:12.065Z,8.70
2017-12-23T15:12:40.445Z,9.20
2017-12-23T15:15:08.838Z,9.48
2017-12-23T15:17:37.213Z,9.60
2017-12-23T15:20:05.624Z,10.25
2017-12-23T15:22:34.798Z,10.25
2017-12-23T15:25:03.247Z,10.88
2017-12-23T15:27:31.637Z,9.52
2017-12-23T15:30:00.017Z,10.93
2017-12-23T15:32:28.722Z,9.10
2017-12-23T15:34:57.212Z,9.75
2017-12-23T15:37:25.850Z,10.90
2017-12-23T15:39:55.056Z,10.63
2017-12-23T15:42:23.418Z,8.77
2017-12-23T15:44:52.089Z,8.88
2017-12-23T15:47:20.480Z,12.70
2017-12-23T15:49:48.898Z,10.13
2017-12-23T15:52:17.339Z,10.02
2017-12-23T15:54:45.704Z,10.32
2017-12-23T15:57:14.198Z,8.63
2017-12-23T15:59:42.571Z,8.10
2017-12-23T16:02:10.941Z,8.85
2017-12-23T16:04:39.331Z,9.70
2017-12-23T16:07:07.710Z,8.73
2017-12-23T16:09:36.145Z,9.82
2017-12-23T16:12:05.278Z,9.93
2017-12-23T16:14:33.662Z,9.30
2017-12-23T16:17:02.051Z,8.80
2017-12-23T16:19:30.443Z,10.02
2017-12-23T16:21:59.101Z,8.43
2017-12-23T16:24:27.465Z,9.55
2017-12-23T16:26:55.874Z,8.63
2017-12-23T16:29:24.275Z,8.88
2017-12-23T16:31:53.446Z,8.93
2017-12-23T16:34:22.001Z,12.57
2017-12-23T16:36:50.455Z,11.07
2017-12-23T16:39:19.585Z,9.02
2017-12-23T16:41:48.134Z,9.23
2017-12-23T16:44:16.658Z,8.48
2017-12-23T16:46:45.118Z,8.20
2017-12-23T16:49:13.482Z,9.60
2017-12-23T16:51:42.910Z,9.05
2017-12-23T16:54:11.305Z,7.72
2017-12-23T16:56:39.670Z,8.60
2017-12-23T16:59:08.110Z,9.43
2017-12-23T17:01:37.240Z,8.68
2017-12-23T17:04:05.702Z,9.07
2017-12-23T17:06:35.260Z,8.00
2017-12-23T17:09:04.710Z,9.23
2017-12-23T17:11:33.589Z,8.23
2017-12-23T17:14:03.124Z,8.98
2017-12-23T17:16:31.778Z,9.00
2017-12-23T17:19:00.454Z,11.00
2017-12-23T17:21:29.132Z,10.45
2017-12-23T17:23:57.842Z,11.63
2017-12-23T17:26:26.669Z,10.82
2017-12-23T17:29:13.448Z,11.88
2017-12-23T17:31:42.055Z,11.40
2017-12-23T17:34:10.668Z,10.80
2017-12-23T17:36:40.282Z,11.90
2017-12-23T17:39:09.676Z,10.48
2017-12-23T17:41:39.300Z,12.80
2017-12-23T17:44:07.751Z,12.27
2017-12-23T17:46:36.153Z,11.52
2017-12-23T17:49:04.583Z,11.07
2017-12-23T17:51:32.992Z,11.70
2017-12-23T17:54:02.296Z,12.32
2017-12-23T17:56:30.668Z,11.77
2017-12-23T17:58:59.037Z,11.70
2017-12-23T18:01:27.473Z,12.63
2017-12-23T18:03:56.631Z,11.40
2017-12-23T18:06:25.055Z,11.77
2017-12-23T18:08:54.595Z,14.20
2017-12-23T18:11:23.228Z,12.02
2017-12-23T18:13:53.760Z,13.02
2017-12-23T18:16:22.367Z,13.15
2017-12-23T18:18:51.603Z,14.05
2017-12-23T18:21:19.988Z,13.62
2017-12-23T18:23:49.116Z,13.05
2017-12-23T18:26:18.495Z,13.25
2017-12-23T18:28:46.852Z,12.05
2017-12-23T18:31:15.534Z,11.95
2017-12-23T18:33:43.905Z,13.85
2017-12-23T18:36:12.286Z,14.65
2017-12-23T18:38:40.691Z,13.30
2017-12-23T18:41:09.076Z,13.80
2017-12-23T18:43:37.737Z,14.40
2017-12-23T18:46:06.100Z,15.07
2017-12-23T18:48:34.497Z,13.70
2017-12-23T18:51:02.994Z,13.57
2017-12-23T18:53:31.362Z,14.10
2017-12-23T18:56:00.034Z,13.93
2017-12-23T18:58:28.409Z,15.93
2017-12-23T19:00:56.842Z,14.65
2017-12-23T19:03:25.237Z,14.55
2017-12-23T19:05:54.400Z,14.80
2017-12-23T19:08:23.154Z,16.08
2017-12-23T19:10:51.526Z,15.57
2017-12-23T19:13:19.923Z,16.40
2017-12-23T19:15:50.313Z,15.68
2017-12-23T19:18:18.712Z,17.45
2017-12-23T19:20:47.101Z,16.27
2017-12-23T19:23:15.507Z,16.58
2017-12-23T19:25:44.898Z,17.00
2017-12-23T19:28:13.280Z,16.08
2017-12-23T19:30:41.658Z,16.42
2017-12-23T19:33:11.016Z,16.60
2017-12-23T19:38:14.826Z,14.60
2017-12-23T19:40:44.206Z,17.00
2017-12-23T19:43:13.405Z,14.65
2017-12-23T19:45:41.802Z,16.42
2017-12-23T19:48:11.112Z,15.73
2017-12-23T19:50:40.708Z,16.10
2017-12-23T19:53:09.910Z,16.30
2017-12-23T19:55:38.346Z,15.35
2017-12-23T19:58:06.796Z,15.18
2017-12-23T20:00:35.175Z,17.65
2017-12-23T20:03:03.706Z,16.52
2017-12-23T20:05:33.275Z,16.20
2017-12-23T20:08:02.326Z,17.80
2017-12-23T20:10:31.738Z,16.50
2017-12-23T20:13:00.237Z,16.42
2017-12-23T20:15:29.340Z,16.08
2017-12-23T20:17:57.998Z,15.93
2017-12-23T20:20:26.563Z,14.50
2017-12-23T20:22:55.286Z,14.90
2017-12-23T20:25:23.891Z,13.10
2017-12-23T20:27:53.426Z,12.93
2017-12-23T20:30:22.873Z,14.35
2017-12-23T20:32:51.620Z,14.48
2017-12-23T20:35:20.392Z,12.98
2017-12-23T20:37:49.633Z,13.43
2017-12-23T20:40:18.411Z,13.75
2017-12-23T20:42:46.900Z,12.98
2017-12-23T20:45:16.426Z,13.85
2017-12-23T20:47:44.928Z,12.40
2017-12-23T20:50:13.875Z,12.43
2017-12-23T20:52:42.492Z,12.35
2017-12-23T20:55:10.987Z,12.55
2017-12-23T20:57:40.389Z,12.50
2017-12-23T21:00:09.075Z,13.52
2017-12-23T21:02:38.577Z,12.23
2017-12-23T21:05:07.576Z,12.15
2017-12-23T21:07:36.784Z,12.40
2017-12-23T21:10:05.219Z,11.00
2017-12-23T21:12:34.142Z,13.65
2017-12-23T21:15:03.431Z,12.50
2017-12-23T21:17:32.318Z,12.27
2017-12-23T21:20:00.961Z,13.23
2017-12-23T21:22:29.704Z,13.23
2017-12-23T21:24:58.449Z,12.43
2017-12-23T21:27:26.855Z,12.32
2017-12-23T21:29:55.835Z,13.98
2017-12-23T21:32:24.311Z,15.70
2017-12-23T21:34:52.962Z,12.80
2017-12-23T21:37:22.498Z,15.27
2017-12-23T21:39:50.915Z,11.82
2017-12-23T21:42:19.586Z,12.15
2017-12-23T21:44:48.284Z,12.60
2017-12-23T21:47:17.780Z,13.25
2017-12-23T21:49:46.484Z,13.43
2017-12-23T21:52:15.173Z,14.13
2017-12-23T21:54:44.546Z,15.43
2017-12-23T21:57:13.097Z,13.90
2017-12-23T21:59:41.860Z,12.88
2017-12-23T22:02:10.757Z,14.15
2017-12-23T22:04:39.435Z,15.25
2017-12-23T22:07:08.320Z,15.02
2017-12-23T22:09:36.778Z,14.80
2017-12-23T22:12:05.353Z,16.08
2017-12-23T22:14:33.861Z,15.52
2017-12-23T22:17:02.542Z,15.80
2017-12-23T22:19:31.605Z,17.08
2017-12-23T22:22:00.023Z,15.23
2017-12-23T22:24:28.626Z,15.70
2017-12-23T22:26:57.115Z,15.32
2017-12-23T22:29:26.247Z,17.58
2017-12-23T22:31:54.688Z,19.85
2017-12-23T22:34:23.945Z,15.50
2017-12-23T22:36:52.382Z,20.77
2017-12-23T22:39:20.990Z,17.85
2017-12-23T22:41:49.467Z,18.48
2017-12-23T22:44:18.175Z,17.50
2017-12-23T22:46:46.699Z,18.60
2017-12-23T22:49:15.916Z,17.62
2017-12-23T22:51:44.386Z,14.85
2017-12-23T22:54:12.904Z,16.23
2017-12-23T22:56:41.302Z,16.85
2017-12-23T22:59:09.731Z,18.23
2017-12-23T23:01:38.180Z,15.43
2017-12-23T23:04:06.645Z,16.48
2017-12-23T23:06:35.018Z,17.02
2017-12-23T23:09:03.530Z,14.30
2017-12-23T23:11:32.660Z,14.77
2017-12-23T23:14:01.212Z,17.05
2017-12-23T23:16:30.399Z,14.38
2017-12-23T23:18:58.862Z,14.60
2017-12-23T23:21:28.213Z,14.35
2017-12-23T23:23:56.667Z,14.80
2017-12-23T23:26:25.801Z,14.75
2017-12-23T23:28:54.284Z,15.40
2017-12-23T23:31:23.066Z,13.55
2017-12-23T23:33:51.800Z,14.15
2017-12-23T23:36:20.971Z,14.65
2017-12-23T23:38:49.762Z,15.43
2017-12-23T23:41:19.209Z,14.73
2017-12-23T23:43:48.601Z,13.15
2017-12-23T23:46:17.079Z,14.57
2017-12-23T23:48:45.729Z,15.50
2017-12-23T23:51:14.107Z,15.82
2017-12-23T23:53:42.505Z,15.18
2017-12-23T23:56:12.398Z,15.70
2017-12-23T23:58:40.967Z,17.90
